Time;durP1;ratioP1;P1;durP2;ratioP2;P2;SDS_P1;SDS_P2;PMS_P1;PMS_P2;Temp;Humidity;BMP_temperature;BMP_pressure;BME280_temperature;BME280_humidity;BME280_pressure;Samples;Min_cycle;Max_cycle;Signal;HPM_P1;HPM_P2
2021/07/19 00:01:46;;;;;;;5.07;3.40;;;;;;;22.13;58.29;98226.19;8347422;28;20212;-68
2021/07/19 00:05:49;;;;;;;7.97;3.57;;;;;;;22.13;58.13;98226.19;8347109;28;20427;-68
2021/07/19 00:10:05;;;;;;;6.60;3.10;;;;;;;22.03;58.13;98220.88;8346605;28;20277;-68
2021/07/19 00:14:09;;;;;;;6.30;3.77;;;;;;;21.91;58.80;98213.19;8347165;28;20204;-68
2021/07/19 00:18:12;;;;;;;8.90;3.67;;;;;;;21.96;58.64;98218.91;8346740;28;20208;-68
2021/07/19 00:22:15;;;;;;;4.67;3.60;;;;;;;22.01;58.43;98216.72;8346382;28;20222;-68
2021/07/19 00:26:20;;;;;;;7.40;4.10;;;;;;;21.84;58.96;98221.66;8346316;28;20201;-68
2021/07/19 00:30:24;;;;;;;5.17;3.70;;;;;;;21.81;58.56;98224.53;8346700;28;20238;-68
2021/07/19 00:34:27;;;;;;;7.30;3.60;;;;;;;21.83;58.56;98221.78;8346756;28;20207;-69
2021/07/19 00:38:30;;;;;;;5.10;3.60;;;;;;;21.85;58.56;98222.47;8347828;28;20217;-69
2021/07/19 00:42:36;;;;;;;6.47;3.53;;;;;;;21.87;58.59;98220.53;8353175;28;20516;-69
2021/07/19 00:46:38;;;;;;;6.30;4.23;;;;;;;21.76;58.85;98221.50;8353100;28;20275;-68
2021/07/19 00:50:42;;;;;;;6.40;4.07;;;;;;;21.73;58.64;98220.91;8353223;28;20231;-68
2021/07/19 00:54:46;;;;;;;6.67;4.00;;;;;;;21.75;59.00;98224.25;8352960;28;20203;-69
2021/07/19 00:58:51;;;;;;;9.50;3.73;;;;;;;21.69;59.25;98227.44;8352838;28;20219;-68
2021/07/19 01:02:54;;;;;;;5.67;3.90;;;;;;;21.62;59.12;98227.94;8352340;28;20200;-68
2021/07/19 01:07:00;;;;;;;7.83;4.30;;;;;;;21.55;59.49;98228.59;8351874;28;20466;-69
2021/07/19 01:11:04;;;;;;;6.00;3.97;;;;;;;21.47;58.84;98222.16;8352134;28;20234;-68
2021/07/19 01:15:09;;;;;;;5.67;3.70;;;;;;;21.52;59.04;98226.22;8352188;28;20200;-68
2021/07/19 01:19:13;;;;;;;5.43;4.17;;;;;;;21.44;59.62;98216.34;8351887;28;20211;-68
2021/07/19 01:23:29;;;;;;;5.83;4.10;;;;;;;21.44;59.71;98224.25;8351847;28;20207;-68
2021/07/19 01:28:04;;;;;;;5.17;3.50;;;;;;;21.41;59.67;98217.38;8351744;28;20202;-68
2021/07/19 01:32:08;;;;;;;8.00;3.70;;;;;;;21.26;60.03;98231.84;8350796;28;20208;-69
2021/07/19 01:36:12;;;;;;;5.60;3.80;;;;;;;21.31;59.79;98234.94;8352163;28;20393;-68
2021/07/19 01:40:16;;;;;;;6.73;4.67;;;;;;;21.25;60.24;98225.75;8351805;28;20397;-68
2021/07/19 01:44:19;;;;;;;7.47;4.07;;;;;;;21.27;59.88;98228.28;8351460;28;20386;-68
2021/07/19 01:48:24;;;;;;;9.40;4.03;;;;;;;21.25;59.91;98223.13;8351791;28;20249;-68
2021/07/19 01:52:27;;;;;;;6.47;4.03;;;;;;;21.21;60.26;98218.22;8349920;28;20212;-68
2021/07/19 01:56:30;;;;;;;10.50;3.90;;;;;;;21.16;60.16;98231.81;8351135;28;20212;-68
2021/07/19 02:00:33;;;;;;;9.73;4.30;;;;;;;21.09;60.17;98233.28;8351124;28;20204;-68
2021/07/19 02:04:37;;;;;;;10.13;3.87;;;;;;;20.98;60.20;98230.69;8350984;28;20388;-68
2021/07/19 02:08:40;;;;;;;7.50;4.10;;;;;;;20.99;60.35;98229.75;8350878;28;20240;-68
2021/07/19 02:12:44;;;;;;;10.97;4.57;;;;;;;21.00;59.83;98226.13;8350903;28;20451;-68
2021/07/19 02:16:50;;;;;;;8.80;4.33;;;;;;;21.02;59.75;98225.06;8350850;28;20402;-68
2021/07/19 02:20:56;;;;;;;9.20;4.23;;;;;;;20.95;60.10;98226.53;8350650;28;20304;-68
2021/07/19 02:24:58;;;;;;;8.70;4.27;;;;;;;20.85;60.59;98228.25;8350539;28;20398;-68
2021/07/19 02:29:01;;;;;;;12.57;4.23;;;;;;;20.88;60.35;98222.72;8349939;28;20225;-68
2021/07/19 02:33:04;;;;;;;5.43;4.07;;;;;;;20.79;60.65;98226.97;8350305;28;20207;-68
2021/07/19 02:37:09;;;;;;;12.03;4.70;;;;;;;20.78;60.82;98224.44;8349916;28;20267;-68
2021/07/19 02:41:12;;;;;;;12.93;5.03;;;;;;;20.76;60.69;98221.94;8350255;28;20213;-68
2021/07/19 02:45:17;;;;;;;9.23;4.43;;;;;;;20.75;60.54;98220.25;8349830;28;20208;-68
2021/07/19 02:49:20;;;;;;;9.73;4.57;;;;;;;20.75;60.34;98222.06;8349786;28;20235;-68
2021/07/19 02:53:25;;;;;;;10.00;4.67;;;;;;;20.78;60.43;98222.66;8350141;28;20227;-68
2021/07/19 02:57:28;;;;;;;10.27;5.00;;;;;;;20.73;61.05;98229.25;8349741;28;20203;-67
2021/07/19 03:01:32;;;;;;;8.90;4.30;;;;;;;20.66;60.62;98221.03;8348931;28;20209;-67
2021/07/19 03:05:38;;;;;;;8.30;3.90;;;;;;;20.70;60.35;98222.44;8348911;28;20212;-67
2021/07/19 03:09:42;;;;;;;11.70;4.23;;;;;;;20.72;60.64;98222.34;8348270;28;20240;-68
2021/07/19 03:13:47;;;;;;;8.00;4.50;;;;;;;20.65;61.35;98211.47;8348594;28;20192;-68
2021/07/19 03:17:51;;;;;;;11.37;5.20;;;;;;;20.65;60.88;98217.53;8348409;28;20464;-68
2021/07/19 03:21:56;;;;;;;11.03;4.97;;;;;;;20.68;60.79;98212.03;8348206;28;20204;-67
2021/07/19 03:26:02;;;;;;;11.50;5.00;;;;;;;20.63;60.66;98218.66;8348229;28;20204;-67
2021/07/19 03:30:06;;;;;;;10.40;4.80;;;;;;;20.62;60.99;98222.22;8348122;28;20230;-67
2021/07/19 03:34:11;;;;;;;11.33;4.93;;;;;;;20.59;60.59;98225.09;8348045;28;20241;-68
2021/07/19 03:38:15;;;;;;;9.93;4.63;;;;;;;20.56;60.71;98230.59;8347715;28;20609;-68
2021/07/19 03:42:21;;;;;;;7.27;4.77;;;;;;;20.57;61.38;98234.91;8347603;28;20382;-68
2021/07/19 03:46:25;;;;;;;8.87;4.43;;;;;;;20.52;61.32;98235.25;8346903;28;20530;-67
2021/07/19 03:50:28;;;;;;;11.80;4.50;;;;;;;20.57;61.17;98232.28;8347351;28;20287;-67
2021/07/19 03:54:33;;;;;;;8.60;4.87;;;;;;;20.57;61.10;98234.91;8347217;28;20196;-68
2021/07/19 03:58:37;;;;;;;9.97;4.50;;;;;;;20.61;60.80;98239.81;8346983;28;20205;-68
2021/07/19 04:02:42;;;;;;;8.40;4.77;;;;;;;20.61;60.70;98241.63;8347162;28;20196;-68
2021/07/19 04:06:45;;;;;;;10.13;4.50;;;;;;;20.61;61.35;98234.56;8346764;28;20236;-68
2021/07/19 04:10:49;;;;;;;7.03;4.67;;;;;;;20.58;61.66;98232.16;8347030;28;20531;-68
2021/07/19 04:14:53;;;;;;;7.93;5.73;;;;;;;20.53;61.84;98236.94;8346133;28;20206;-68
2021/07/19 04:18:56;;;;;;;8.03;5.47;;;;;;;20.61;62.07;98242.44;8346751;28;20342;-68
2021/07/19 04:22:59;;;;;;;10.17;5.40;;;;;;;20.72;61.87;98238.94;8346953;28;20389;-68
2021/07/19 04:27:02;;;;;;;7.33;5.50;;;;;;;20.58;62.12;98240.06;8346885;28;20214;-68
2021/07/19 04:31:07;;;;;;;8.60;5.43;;;;;;;20.65;62.25;98248.28;8346958;28;20235;-68
2021/07/19 04:35:14;;;;;;;8.40;5.00;;;;;;;20.71;62.17;98245.16;8347204;28;20390;-69
2021/07/19 04:39:16;;;;;;;11.97;5.53;;;;;;;20.77;61.63;98243.81;8346997;28;20216;-68
2021/07/19 04:43:19;;;;;;;10.33;5.63;;;;;;;20.80;61.81;98239.16;8346688;28;20379;-68
2021/07/19 04:47:23;;;;;;;8.60;3.97;;;;;;;21.12;63.01;98242.72;8346165;28;20203;-66
2021/07/19 04:51:26;;;;;;;11.53;4.57;;;;;;;21.25;62.83;98249.47;8346127;28;20236;-66
2021/07/19 04:55:30;;;;;;;8.30;4.40;;;;;;;21.41;62.54;98245.53;8345999;28;20213;-66
2021/07/19 04:59:39;;;;;;;10.50;4.80;;;;;;;21.62;62.68;98246.38;8345779;28;20563;-66
2021/07/19 05:03:46;;;;;;;8.57;4.43;;;;;;;21.63;61.40;98240.16;8354640;28;20360;-66
2021/07/19 05:07:49;;;;;;;15.40;4.53;;;;;;;21.69;62.90;98245.88;8378479;28;20237;-66
2021/07/19 05:11:52;;;;;;;9.20;4.80;;;;;;;21.85;61.48;98248.84;8368736;28;20216;-66
2021/07/19 05:15:56;;;;;;;13.63;5.20;;;;;;;21.80;61.69;98243.97;8363062;28;20196;-67
2021/07/19 05:20:00;;;;;;;12.37;5.03;;;;;;;21.93;61.75;98242.91;8364645;28;20197;-66
2021/07/19 05:24:04;;;;;;;8.47;4.50;;;;;;;22.00;61.41;98244.03;8364278;28;20221;-67
2021/07/19 05:28:09;;;;;;;7.97;5.23;;;;;;;21.98;61.64;98238.91;8367667;28;20192;-67
2021/07/19 05:32:17;;;;;;;17.77;6.63;;;;;;;21.73;61.54;98247.28;8355924;28;20216;-67
2021/07/19 05:36:21;;;;;;;13.47;6.70;;;;;;;21.86;61.44;98232.06;8350636;28;20202;-67
2021/07/19 05:40:24;;;;;;;10.90;6.70;;;;;;;21.88;61.39;98239.84;8351305;28;20200;-67
2021/07/19 05:44:27;;;;;;;13.93;7.50;;;;;;;21.94;61.54;98231.41;8351460;28;20215;-67
2021/07/19 05:48:30;;;;;;;18.73;7.50;;;;;;;22.03;61.31;98235.88;8350786;28;20193;-67
2021/07/19 05:52:34;;;;;;;8.23;6.73;;;;;;;22.20;61.39;98227.31;8351443;28;20227;-69
2021/07/19 05:56:37;;;;;;;5.97;5.00;;;;;;;22.24;60.85;98247.19;8351293;28;20207;-69
2021/07/19 06:00:40;;;;;;;8.10;5.13;;;;;;;22.29;60.89;98243.31;8351420;28;20208;-69
2021/07/19 06:04:43;;;;;;;7.03;5.27;;;;;;;22.33;60.37;98240.31;8350989;28;20286;-69
2021/07/19 06:08:47;;;;;;;7.13;5.00;;;;;;;22.44;60.95;98248.06;8350905;28;20240;-69
2021/07/19 06:12:50;;;;;;;5.63;5.10;;;;;;;22.71;59.62;98251.84;8350660;28;20231;-69
2021/07/19 06:16:53;;;;;;;7.40;5.00;;;;;;;22.58;59.84;98246.00;8350035;28;20212;-69
2021/07/19 06:20:55;;;;;;;6.03;5.40;;;;;;;22.89;59.21;98236.16;8349983;28;20204;-69
2021/07/19 06:24:59;;;;;;;6.77;5.27;;;;;;;22.83;58.90;98236.72;8349858;28;20420;-69
2021/07/19 06:29:02;;;;;;;7.10;5.63;;;;;;;22.95;59.02;98238.25;8349684;28;20295;-69
2021/07/19 06:33:05;;;;;;;13.97;5.23;;;;;;;23.14;58.69;98240.06;8349411;28;20234;-69
2021/07/19 06:37:08;;;;;;;10.50;5.30;;;;;;;23.01;58.72;98244.78;8348385;28;20207;-69
2021/07/19 06:41:13;;;;;;;7.23;5.00;;;;;;;23.26;57.95;98246.03;8349043;28;20527;-69
2021/07/19 06:45:16;;;;;;;6.43;4.60;;;;;;;23.39;57.27;98240.44;8348980;28;20204;-69
2021/07/19 06:49:19;;;;;;;7.10;5.10;;;;;;;23.49;56.80;98237.78;8348872;28;20217;-69
2021/07/19 06:53:22;;;;;;;8.40;4.73;;;;;;;23.62;56.38;98230.38;8348744;28;20329;-69
2021/07/19 06:57:26;;;;;;;6.23;4.37;;;;;;;23.75;56.01;98235.34;8349043;28;20219;-69
2021/07/19 07:01:28;;;;;;;6.13;4.47;;;;;;;23.65;53.79;98234.56;8349032;28;20210;-68
2021/07/19 07:05:32;;;;;;;6.00;4.50;;;;;;;23.96;54.46;98227.22;8348791;28;20264;-68
2021/07/19 07:09:35;;;;;;;5.50;4.33;;;;;;;24.10;53.18;98221.41;8348624;28;20560;-69
2021/07/19 07:13:56;;;;;;;6.07;4.10;;;;;;;24.48;53.57;98224.78;8349026;28;20525;-69
2021/07/19 07:17:59;;;;;;;6.40;4.17;;;;;;;24.72;52.22;98218.94;8348679;28;20208;-69
2021/07/19 07:22:01;;;;;;;8.87;4.30;;;;;;;24.90;51.90;98215.44;8347308;28;20290;-68
2021/07/19 07:26:05;;;;;;;8.50;4.53;;;;;;;24.80;52.46;98222.66;8348473;28;20219;-68
2021/07/19 07:30:10;;;;;;;7.90;4.13;;;;;;;24.78;51.92;98217.50;8348680;28;20228;-69
2021/07/19 07:34:13;;;;;;;11.23;3.90;;;;;;;24.95;51.45;98223.78;8348575;28;20205;-68
2021/07/19 07:38:16;;;;;;;6.27;4.17;;;;;;;25.13;50.81;98227.25;8348320;28;20204;-68
2021/07/19 07:42:18;;;;;;;12.23;4.30;;;;;;;25.74;50.68;98219.34;8348363;28;20209;-70
2021/07/19 07:46:23;;;;;;;9.17;3.67;;;;;;;25.87;47.75;98217.09;8347776;28;20270;-70
2021/07/19 07:50:26;;;;;;;8.87;3.97;;;;;;;25.94;48.88;98227.94;8347915;28;20244;-65
2021/07/19 07:54:29;;;;;;;10.20;3.77;;;;;;;26.34;48.02;98227.25;8347716;28;20223;-66
2021/07/19 07:58:31;;;;;;;5.57;3.60;;;;;;;26.60;46.73;98217.53;8348502;28;20209;-65
2021/07/19 08:02:36;;;;;;;5.37;3.50;;;;;;;26.97;47.85;98219.72;8367348;28;20203;-66
2021/07/19 08:06:39;;;;;;;8.87;3.90;;;;;;;27.20;46.76;98214.56;8380749;28;20375;-66
2021/07/19 08:10:42;;;;;;;7.03;3.53;;;;;;;27.34;46.21;98214.88;8380395;28;20531;-66
2021/07/19 08:14:45;;;;;;;7.90;3.63;;;;;;;27.65;43.57;98210.50;8367508;28;20206;-66
2021/07/19 08:18:49;;;;;;;7.53;3.07;;;;;;;27.61;42.54;98211.03;8346712;28;20209;-66
2021/07/19 08:22:52;;;;;;;6.33;3.17;;;;;;;27.96;42.42;98206.28;8346624;28;20207;-66
2021/07/19 08:26:56;;;;;;;8.47;3.43;;;;;;;27.83;41.17;98194.28;8346206;28;20384;-66
2021/07/19 08:30:59;;;;;;;8.87;3.23;;;;;;;28.32;43.12;98195.09;8346307;28;20239;-66
2021/07/19 08:35:09;;;;;;;5.47;3.50;;;;;;;28.37;42.92;98206.03;8346268;28;20196;-66
2021/07/19 08:39:12;;;;;;;6.83;3.47;;;;;;;28.55;41.58;98203.16;8346920;28;20197;-72
2021/07/19 08:43:15;;;;;;;5.57;3.57;;;;;;;28.71;40.40;98196.84;8346570;28;20501;-72
2021/07/19 08:47:20;;;;;;;7.90;3.80;;;;;;;28.99;40.17;98191.81;8345655;28;20451;-71
2021/07/19 08:51:24;;;;;;;7.73;4.03;;;;;;;28.04;44.58;98190.25;8346389;28;20230;-71
2021/07/19 08:55:27;;;;;;;7.27;5.20;;;;;;;28.62;42.24;98196.94;8346846;28;20497;-71
2021/07/19 08:59:30;;;;;;;7.73;4.40;;;;;;;29.29;41.42;98195.38;8347796;28;20204;-72
2021/07/19 09:03:33;;;;;;;7.60;4.23;;;;;;;28.86;40.95;98192.41;8352851;28;20205;-70
2021/07/19 09:07:38;;;;;;;9.43;4.00;;;;;;;29.36;39.74;98198.13;8352794;28;20647;-72
2021/07/19 09:11:48;;;;;;;9.37;4.23;;;;;;;29.34;41.08;98197.50;8352401;28;20236;-71
2021/07/19 09:15:53;;;;;;;7.10;3.80;;;;;;;29.52;40.43;98187.31;8352637;28;20202;-72
2021/07/19 09:19:57;;;;;;;7.13;3.70;;;;;;;28.38;43.55;98189.06;8351309;28;20487;-72
2021/07/19 09:24:06;;;;;;;4.77;3.40;;;;;;;27.74;43.81;98179.41;8351718;28;20206;-72
2021/07/19 09:28:11;;;;;;;7.60;3.97;;;;;;;28.53;42.58;98175.84;8351729;28;20207;-72
2021/07/19 09:32:14;;;;;;;8.70;4.23;;;;;;;28.23;43.56;98173.00;8351377;28;20213;-72
2021/07/19 09:36:24;;;;;;;5.00;3.60;;;;;;;27.44;43.94;98173.81;8352400;28;20209;-72
2021/07/19 09:40:29;;;;;;;6.20;3.60;;;;;;;27.04;44.45;98167.56;8352410;28;20461;-71
2021/07/19 09:44:32;;;;;;;6.93;3.60;;;;;;;28.52;42.77;98159.06;8352257;28;20209;-72
2021/07/19 09:48:36;;;;;;;7.17;3.90;;;;;;;27.98;43.73;98167.00;8351995;28;20207;-71
2021/07/19 09:52:38;;;;;;;7.30;3.67;;;;;;;27.34;44.31;98164.38;8351742;28;20234;-72
2021/07/19 09:56:42;;;;;;;5.73;3.63;;;;;;;28.20;43.50;98155.56;8350925;28;20193;-65
2021/07/19 10:00:47;;;;;;;7.90;4.00;;;;;;;28.90;42.16;98167.06;8351430;28;20214;-65
2021/07/19 10:04:50;;;;;;;6.27;3.70;;;;;;;29.53;41.00;98159.63;8350703;28;20334;-65
2021/07/19 10:08:56;;;;;;;5.07;3.40;;;;;;;29.79;40.03;98151.16;8350262;28;20236;-66
2021/07/19 10:13:01;;;;;;;5.57;3.73;;;;;;;29.55;40.33;98152.25;8349625;28;20426;-66
2021/07/19 10:17:04;;;;;;;7.40;3.87;;;;;;;29.22;40.83;98149.13;8351181;28;20397;-65
2021/07/19 10:21:07;;;;;;;8.03;3.73;;;;;;;29.94;39.45;98142.28;8350969;28;20207;-65
2021/07/19 10:25:11;;;;;;;7.63;3.17;;;;;;;30.36;38.23;98146.88;8350855;28;20205;-65
2021/07/19 10:29:16;;;;;;;8.40;3.30;;;;;;;30.48;37.46;98147.22;8350697;28;20201;-65
2021/07/19 10:33:19;;;;;;;8.40;3.73;;;;;;;30.42;37.94;98139.97;8350691;28;20223;-66
2021/07/19 10:37:23;;;;;;;8.57;3.50;;;;;;;30.33;38.14;98136.59;8350555;28;20203;-66
2021/07/19 10:41:26;;;;;;;9.37;3.53;;;;;;;29.58;39.70;98143.88;8350643;28;20209;-66
2021/07/19 10:45:38;;;;;;;6.23;3.23;;;;;;;29.37;39.19;98141.13;8350207;28;20200;-66
2021/07/19 10:49:43;;;;;;;6.80;3.57;;;;;;;30.28;38.66;98128.28;8350269;28;20226;-69
2021/07/19 10:53:46;;;;;;;5.53;3.70;;;;;;;29.71;39.73;98131.72;8349626;28;20231;-71
2021/07/19 10:58:00;;;;;;;9.10;4.30;;;;;;;29.81;38.98;98130.44;8349707;28;20204;-71
2021/07/19 11:02:04;;;;;;;7.63;3.80;;;;;;;30.47;38.66;98132.19;8350170;28;20211;-72
2021/07/19 11:06:07;;;;;;;6.50;3.70;;;;;;;30.59;37.35;98130.66;8349622;28;20521;-73
2021/07/19 11:10:20;;;;;;;7.93;4.17;;;;;;;30.73;37.77;98118.25;8349538;28;20224;-74
2021/07/19 11:14:24;;;;;;;9.70;4.30;;;;;;;29.30;41.12;98124.19;8349432;28;20228;-72
2021/07/19 11:18:30;;;;;;;7.57;4.00;;;;;;;29.95;38.69;98115.44;8349590;28;20395;-73
2021/07/19 11:22:33;;;;;;;7.73;3.57;;;;;;;30.48;37.29;98119.66;8348501;28;20219;-72
2021/07/19 11:26:48;;;;;;;11.90;4.50;;;;;;;30.53;37.45;98112.72;8348830;28;20205;-70
2021/07/19 11:31:06;;;;;;;8.23;4.37;;;;;;;30.95;35.38;98115.56;8348916;28;20264;-73
2021/07/19 11:35:12;;;;;;;8.93;4.50;;;;;;;30.99;35.52;98109.59;8348359;28;20204;-74
2021/07/19 11:39:17;;;;;;;6.73;4.17;;;;;;;31.17;35.58;98110.97;8348075;28;20201;-71
2021/07/19 11:43:24;;;;;;;10.17;4.50;;;;;;;30.54;35.57;98098.38;8345122;28;20204;-74
2021/07/19 11:47:31;;;;;;;9.60;4.40;;;;;;;30.88;35.37;98088.75;8347643;28;20247;-71
2021/07/19 11:51:35;;;;;;;7.73;5.10;;;;;;;30.40;36.41;98099.25;8346888;28;20255;-71
2021/07/19 11:55:38;;;;;;;8.93;5.13;;;;;;;31.20;35.81;98089.16;8346489;28;20275;-72
2021/07/19 11:59:44;;;;;;;9.07;5.90;;;;;;;31.09;35.25;98087.91;8344499;28;20204;-72
2021/07/19 12:03:49;;;;;;;8.73;5.40;;;;;;;29.90;36.60;98091.13;8347239;28;20199;-67
2021/07/19 12:07:59;;;;;;;10.37;6.73;;;;;;;30.50;34.82;98083.75;8346842;28;20567;-66
2021/07/19 12:12:04;;;;;;;9.87;6.23;;;;;;;30.88;33.65;98090.59;8344771;28;20216;-66
2021/07/19 12:16:08;;;;;;;12.93;5.80;;;;;;;30.35;35.84;98080.31;8347028;28;20205;-66
2021/07/19 12:20:11;;;;;;;8.13;6.40;;;;;;;30.82;34.66;98080.69;8347189;28;20193;-65
2021/07/19 12:24:17;;;;;;;13.77;6.20;;;;;;;31.04;33.78;98074.28;8346955;28;20206;-66
2021/07/19 12:28:19;;;;;;;7.87;5.70;;;;;;;31.18;35.03;98070.63;8347000;28;20195;-65
2021/07/19 12:32:22;;;;;;;11.10;5.83;;;;;;;29.99;35.32;98073.97;8344851;28;20430;-65
2021/07/19 12:36:25;;;;;;;9.70;5.83;;;;;;;29.46;36.69;98080.53;8351615;28;20197;-65
2021/07/19 12:40:29;;;;;;;8.73;7.13;;;;;;;29.05;36.37;98076.44;8351352;28;20201;-65
2021/07/19 12:44:32;;;;;;;10.80;6.80;;;;;;;30.43;34.69;98060.66;8353621;28;20465;-65
2021/07/19 12:48:35;;;;;;;8.83;6.17;;;;;;;30.44;34.85;98068.47;8353603;28;20204;-66
2021/07/19 12:52:38;;;;;;;8.83;6.00;;;;;;;29.12;37.74;98063.22;8355524;28;20233;-66
2021/07/19 12:56:52;;;;;;;7.67;6.03;;;;;;;28.77;38.05;98065.56;8353899;28;20202;-65
2021/07/19 13:00:55;;;;;;;9.23;5.87;;;;;;;29.42;37.56;98067.53;8354180;28;20203;-65
2021/07/19 13:05:07;;;;;;;13.73;6.20;;;;;;;28.69;38.05;98066.47;8353330;28;20203;-66
2021/07/19 13:09:13;;;;;;;11.93;6.40;;;;;;;29.66;36.23;98068.22;8347564;28;20224;-66
2021/07/19 13:13:23;;;;;;;9.07;6.83;;;;;;;30.18;34.99;98058.34;8352112;28;20242;-67
2021/07/19 13:17:27;;;;;;;7.87;6.80;;;;;;;30.23;35.85;98057.78;8352952;28;20198;-66
2021/07/19 13:21:30;;;;;;;7.90;6.20;;;;;;;29.17;37.54;98063.53;8352928;28;20521;-67
2021/07/19 13:25:35;;;;;;;10.83;6.80;;;;;;;28.84;38.40;98053.19;8352631;28;20395;-67
2021/07/19 13:29:39;;;;;;;10.00;6.83;;;;;;;28.82;37.14;98050.69;8351262;28;20218;-67
2021/07/19 13:33:43;;;;;;;9.90;7.13;;;;;;;29.27;37.70;98053.41;8348811;28;20226;-67
2021/07/19 13:37:48;;;;;;;11.23;7.37;;;;;;;29.76;36.79;98046.63;8350988;28;20217;-67
2021/07/19 13:42:10;;;;;;;13.60;7.10;;;;;;;29.87;35.80;98045.28;8351611;28;20212;-67
2021/07/19 13:46:14;;;;;;;10.30;7.40;;;;;;;30.19;36.03;98041.28;8361667;28;20202;-66
2021/07/19 13:50:17;;;;;;;9.23;7.50;;;;;;;29.89;36.37;98049.44;8378648;28;20218;-67
2021/07/19 13:54:20;;;;;;;12.10;7.17;;;;;;;29.29;37.39;98038.03;8369451;28;20231;-67
2021/07/19 13:58:23;;;;;;;11.97;7.20;;;;;;;30.04;36.84;98052.03;8366164;28;20270;-67
2021/07/19 14:02:29;;;;;;;9.40;6.70;;;;;;;30.16;35.88;98045.19;8383765;28;20420;-66
2021/07/19 14:06:33;;;;;;;8.77;6.70;;;;;;;30.17;35.72;98038.81;8380912;28;20261;-67
2021/07/19 14:10:36;;;;;;;8.93;6.53;;;;;;;30.03;36.19;98042.38;8383192;28;20249;-67
2021/07/19 14:14:39;;;;;;;12.87;6.60;;;;;;;30.27;35.51;98041.16;8370751;28;20223;-67
2021/07/19 14:18:43;;;;;;;13.87;6.43;;;;;;;30.35;35.50;98045.59;8383515;28;20203;-67
2021/07/19 14:22:46;;;;;;;10.17;6.90;;;;;;;29.92;35.44;98043.72;8383248;28;20474;-66
2021/07/19 14:26:48;;;;;;;8.03;6.93;;;;;;;29.76;36.53;98030.63;8382944;28;20509;-66
2021/07/19 14:30:51;;;;;;;6.87;6.17;;;;;;;30.11;36.34;98036.09;8377484;28;20206;-68
2021/07/19 14:34:59;;;;;;;8.90;7.30;;;;;;;29.59;36.26;98032.66;8382951;28;20221;-67
2021/07/19 14:39:03;;;;;;;8.33;6.20;;;;;;;29.01;37.47;98029.84;8382552;28;20200;-66
2021/07/19 14:43:06;;;;;;;10.03;6.93;;;;;;;29.34;36.96;98029.47;8370812;28;20204;-67
2021/07/19 14:47:09;;;;;;;11.27;6.97;;;;;;;29.47;36.44;98028.81;8380280;28;20195;-66
2021/07/19 14:51:26;;;;;;;8.77;6.60;;;;;;;29.54;36.90;98027.06;8382218;28;20196;-67
2021/07/19 14:55:31;;;;;;;8.73;6.50;;;;;;;29.61;36.21;98017.28;8356992;28;20220;-67
2021/07/19 14:59:34;;;;;;;7.43;5.57;;;;;;;29.71;36.21;98008.97;8356832;28;20195;-67
2021/07/19 15:03:36;;;;;;;8.73;7.30;;;;;;;29.62;35.09;98016.25;8361779;28;20275;-67
2021/07/19 15:07:41;;;;;;;8.87;6.33;;;;;;;29.17;35.08;98012.88;8365329;28;20225;-67
2021/07/19 15:11:44;;;;;;;10.73;6.50;;;;;;;29.08;35.88;98008.63;8347306;28;20208;-68
2021/07/19 15:15:46;;;;;;;9.23;6.13;;;;;;;29.22;35.87;98013.13;8351589;28;20523;-68
2021/07/19 15:19:49;;;;;;;8.33;6.40;;;;;;;29.12;35.00;98009.91;8348010;28;20205;-66
2021/07/19 15:23:53;;;;;;;8.17;5.97;;;;;;;28.98;35.67;98000.91;8347768;28;20208;-66
2021/07/19 15:27:56;;;;;;;8.00;6.13;;;;;;;29.07;35.03;98006.97;8348496;28;20251;-66
2021/07/19 15:31:59;;;;;;;8.73;5.97;;;;;;;28.80;35.50;98002.09;8348570;28;20345;-66
2021/07/19 15:36:02;;;;;;;7.40;6.23;;;;;;;28.83;34.57;97999.06;8348023;28;20256;-66
2021/07/19 15:40:08;;;;;;;7.57;6.77;;;;;;;28.63;34.94;97998.75;8347728;28;20451;-66
2021/07/19 15:44:11;;;;;;;9.50;7.50;;;;;;;28.56;34.73;98003.19;8348295;28;20240;-67
2021/07/19 15:48:14;;;;;;;8.83;6.70;;;;;;;28.70;35.70;97998.06;8347974;28;20203;-66
2021/07/19 15:52:17;;;;;;;8.67;7.77;;;;;;;28.56;36.41;97997.88;8347839;28;20210;-66
2021/07/19 15:56:21;;;;;;;8.93;8.00;;;;;;;28.48;34.23;97992.56;8347688;28;20231;-66
2021/07/19 16:00:23;;;;;;;10.87;8.23;;;;;;;28.16;34.71;98005.19;8347514;28;20211;-66
2021/07/19 16:04:26;;;;;;;8.87;7.97;;;;;;;28.23;35.63;98013.28;8347455;28;20300;-65
2021/07/19 16:08:29;;;;;;;10.23;8.83;;;;;;;28.20;35.67;98010.97;8347251;28;20243;-65
2021/07/19 16:12:33;;;;;;;9.93;8.23;;;;;;;28.19;36.23;97994.16;8346989;28;20219;-66
2021/07/19 16:16:39;;;;;;;9.33;8.40;;;;;;;28.10;35.82;98005.06;8347553;28;20539;-66
2021/07/19 16:20:42;;;;;;;10.20;8.03;;;;;;;27.96;37.20;98006.69;8347744;28;20209;-65
2021/07/19 16:24:45;;;;;;;10.00;9.00;;;;;;;27.70;35.87;97997.16;8347373;28;20205;-66
2021/07/19 16:28:52;;;;;;;10.90;9.67;;;;;;;27.53;35.39;97990.28;8347756;28;20212;-67
2021/07/19 16:32:55;;;;;;;11.07;9.87;;;;;;;27.60;36.26;97993.91;8346656;28;20268;-67
2021/07/19 16:36:59;;;;;;;11.37;9.83;;;;;;;27.33;36.26;97993.41;8347131;28;20210;-67
2021/07/19 16:41:02;;;;;;;11.73;10.53;;;;;;;27.28;36.71;97987.75;8347178;28;20270;-67
2021/07/19 16:45:07;;;;;;;12.13;10.90;;;;;;;27.16;37.59;97981.97;8346792;28;20531;-67
2021/07/19 16:49:10;;;;;;;12.60;10.60;;;;;;;27.24;37.86;97989.09;8346347;28;20218;-67
2021/07/19 16:53:13;;;;;;;13.30;10.47;;;;;;;27.16;37.28;97994.44;8346899;28;20457;-67
2021/07/19 16:57:16;;;;;;;11.93;10.27;;;;;;;27.09;37.53;97989.84;8346099;28;20472;-67
2021/07/19 17:01:21;;;;;;;15.10;10.87;;;;;;;27.09;38.72;97991.63;8345409;28;20200;-67
2021/07/19 17:05:25;;;;;;;25.50;11.93;;;;;;;26.89;37.86;97986.75;8345467;28;20197;-67
2021/07/19 17:09:28;;;;;;;12.87;11.40;;;;;;;26.70;38.14;97981.81;8346256;28;20315;-67
2021/07/19 17:13:31;;;;;;;13.17;11.77;;;;;;;26.61;37.88;97975.69;8346407;28;20256;-67
2021/07/19 17:17:35;;;;;;;14.53;11.73;;;;;;;26.60;37.43;97978.50;8346348;28;20220;-67
2021/07/19 17:21:39;;;;;;;13.47;12.17;;;;;;;26.44;37.62;97982.81;8349025;28;20229;-67
2021/07/19 17:25:42;;;;;;;12.73;11.53;;;;;;;26.44;37.28;97982.00;8352223;28;20213;-67
2021/07/19 17:29:45;;;;;;;14.53;11.83;;;;;;;26.17;35.95;97975.25;8351961;28;20201;-67
2021/07/19 17:33:49;;;;;;;12.17;10.97;;;;;;;26.25;37.18;97988.50;8352163;28;20416;-66
2021/07/19 17:37:52;;;;;;;12.70;11.43;;;;;;;26.14;37.84;97989.66;8352083;28;20213;-66
2021/07/19 17:41:55;;;;;;;12.60;10.93;;;;;;;26.18;38.03;97992.81;8351930;28;20501;-67
2021/07/19 17:45:58;;;;;;;12.47;11.23;;;;;;;26.11;37.85;97982.88;8352018;28;20214;-67
2021/07/19 17:50:02;;;;;;;13.00;11.80;;;;;;;25.97;37.81;97990.66;8352026;28;20224;-67
2021/07/19 17:54:06;;;;;;;16.47;12.07;;;;;;;25.95;38.83;97988.19;8351815;28;20226;-67
2021/07/19 17:58:08;;;;;;;12.80;11.03;;;;;;;25.93;38.06;97985.69;8351599;28;20211;-67
2021/07/19 18:02:11;;;;;;;12.67;11.40;;;;;;;25.90;38.85;97995.78;8351469;28;20232;-66
2021/07/19 18:06:16;;;;;;;12.27;10.47;;;;;;;25.87;39.22;97996.91;8351180;28;20296;-67
2021/07/19 18:10:21;;;;;;;15.17;11.10;;;;;;;25.77;39.11;97990.13;8351455;28;20222;-67
2021/07/19 18:14:24;;;;;;;11.93;10.50;;;;;;;25.77;40.71;97995.44;8350942;28;20225;-67
2021/07/19 18:18:27;;;;;;;13.50;11.40;;;;;;;25.70;39.92;98000.53;8350657;28;20207;-67
2021/07/19 18:22:37;;;;;;;12.83;11.53;;;;;;;25.66;40.45;97986.78;8351126;28;20207;-67
2021/07/19 18:31:02;;;;;;;44.40;12.40;;;;;;;25.54;40.74;97994.22;8350789;28;20506;-70
2021/07/19 18:35:06;;;;;;;12.30;11.10;;;;;;;25.43;40.59;97996.34;8348598;28;20221;-66
2021/07/19 18:39:10;;;;;;;15.57;11.87;;;;;;;25.39;42.37;97993.19;8369107;28;20197;-66
2021/07/19 18:43:14;;;;;;;13.73;11.83;;;;;;;25.28;43.02;97999.59;8383585;28;20205;-66
2021/07/19 18:47:18;;;;;;;12.80;11.50;;;;;;;25.24;45.94;98003.56;8383616;28;20460;-66
2021/07/19 18:51:20;;;;;;;18.33;12.50;;;;;;;25.12;44.25;98005.66;8383346;28;20200;-66
2021/07/19 18:55:25;;;;;;;14.33;12.00;;;;;;;25.06;44.90;98014.25;8380522;28;20227;-69
2021/07/19 18:59:27;;;;;;;15.83;12.20;;;;;;;24.94;43.91;98008.41;8349452;28;20193;-66
2021/07/19 19:03:36;;;;;;;17.30;11.77;;;;;;;24.81;44.22;98015.94;8346811;28;20208;-66
2021/07/19 19:07:39;;;;;;;14.10;12.17;;;;;;;24.80;45.92;98019.56;8349036;28;20234;-66